Estación Meteorológica Peña el Pijo (Robertgarden) [ 06/22/17 18:33:07 CEST ]

Fecha Hora Presion(HPa) Temp (°C) Humedad % Rocio (°C) Viento ( m/s) Direccion Lluvia 1Hora(mm) Lluvia 24H(mm) LLuvia Total(mm)
2017-May-27 01:02:00 1009.700 13.0 63 6.1         1390.83
2017-May-27 02:01:47 1009.700 11.6 68 5.9         1390.83
2017-May-27 03:01:40 1009.700 10.5 70 5.3         1390.83
2017-May-27 04:01:40 1009.600 9.8 73 5.2         1390.83
2017-May-27 05:09:32 1009.500 - - - - SSW     1390.83
2017-May-27 06:09:53 1009.700 - - - - SSW     1390.83
2017-May-27 07:09:06 1009.800 - - - - SSW     1390.83
2017-May-27 08:09:00 1010.000 - - - - SSW     1390.83
2017-May-27 09:01:44 1009.900 17.4 59 9.3         1390.83
2017-May-27 10:01:45 1009.900 21.9 45 9.4         1390.83
2017-May-27 11:02:04 1010.000 25.9 31 7.4         1390.83
2017-May-27 12:01:41 1010.400 26.3 31 7.8 0.9 SSW     1390.83
2017-May-27 13:01:54 1010.300 27.6 32 9.3         1390.83
2017-May-27 14:01:56 1010.100 28.1 33 10.2         1390.83
2017-May-27 15:01:47 1010.000 28.2 31 9.4 1.3 S     1390.83
2017-May-27 16:02:01 1009.700 29.5 29 9.5         1390.83
2017-May-27 17:01:52 1009.500 28.6 34 11.1 1.5 S     1390.83
2017-May-27 18:01:47 1009.800 27.5 36 11.0 3.0 S     1390.83
2017-May-27 19:01:45 1009.700 25.9 36 9.6         1390.83
2017-May-27 20:01:54 1010.400 23.6 40 9.2         1390.83
2017-May-27 21:01:51 1011.000 20.5 40 6.4         1390.83
2017-May-27 22:01:46 1011.400 18.0 43 5.2         1390.83
2017-May-27 23:01:44 1011.900 15.9 48 4.9         1390.83

Temperatura Máxima:29°    Temperatura Mínima:
Presión Máxima:1011.900 Hpa    Presión Mínima:1009.500 Hpa


Volver